Portada
METAR-TAF:

METAR-TAF

Aeropuertos :

Lanzarote, España

Aeropuerto de Lanzarote

latitud: 28-57N, longitud: 013-36W, altitud: 14 m

Observación

El informe se hizo hace 23 minutos, a las 19:00 UTC
Viento 5 kt del oeste-noroeste
Temperatura 19°C
Humedad 64%
Presión 1023 hPa
Visibilidad 10 km o más
Escasas nubes a una altura de 2000 ft

METAR: GCRR 201900Z 30005KT 9999 FEW020 19/12 Q1023

Hora: 19:23 (19:23 UTC)

Pronóstico

El informe se hizo hace 5 horas y 23 minutos, a las 14:00 UTC
Pronóstico válido del 20 a las 15 UTC al 21 a las 15 UTC
Viento 6 kt del sur
Visibilidad 10 km o más
Escasas nubes a una altura de 2500 ft

TAF: GCRR 201400Z 2015/2115 19006KT 9999 FEW025 TX21/2015Z TN14/2107Z

Observaciones y pronósticos meteorológicos de más de 4000 aeropuertos (mensajes METAR y TAF).

Los puntos amarillos y rojos representan las estaciones disponibles.

Ponga el ratón en el punto deseado para ver el nombre de la estación.

Haga clic para ver las observaciones y los pronósticos meteorológicos.

Para cambiar el mapa : haga clic en los botones verdes con una cruz de color negro para hacer un zoom, en el botón verde con un guión para alejar o en las flechas verdes para mapas adyacentes.


METAR-TAF: